createdAt,value
2019-05-13T00:01:28.429Z,48449.16
2019-05-13T00:03:56.089Z,48415.68
2019-05-13T00:06:23.888Z,48447.19
2019-05-13T00:08:54.165Z,48464.91
2019-05-13T00:11:20.971Z,48458.02
2019-05-13T00:13:48.644Z,48417.65
2019-05-13T00:16:16.305Z,48451.13
2019-05-13T00:18:44.406Z,48437.34
2019-05-13T00:21:14.025Z,48457.04
2019-05-13T00:23:44.065Z,48444.23
2019-05-13T00:26:11.095Z,48433.41
2019-05-13T00:28:38.835Z,48453.10
2019-05-13T00:31:06.492Z,48427.50
2019-05-13T00:33:34.151Z,48425.53
2019-05-13T00:36:03.887Z,48437.34
2019-05-13T00:38:33.473Z,48431.43
2019-05-13T00:41:00.560Z,48436.36
2019-05-13T00:43:28.220Z,48426.51
2019-05-13T00:45:55.887Z,48443.25
2019-05-13T00:48:23.550Z,48468.85
2019-05-13T00:50:51.221Z,48459.00
2019-05-13T00:53:18.884Z,48455.07
2019-05-13T00:55:46.565Z,48459.00
2019-05-13T00:58:14.336Z,48484.61
2019-05-13T01:00:44.208Z,48407.80
2019-05-13T01:03:13.898Z,48427.50
2019-05-13T01:05:40.791Z,48482.64
2019-05-13T01:08:08.453Z,48444.23
2019-05-13T01:10:36.109Z,48450.14
2019-05-13T01:13:04.604Z,48453.10
2019-05-13T01:15:34.556Z,48439.31
2019-05-13T01:18:03.967Z,48500.36
2019-05-13T01:20:33.746Z,48474.76
2019-05-13T01:23:03.005Z,48468.85
2019-05-13T01:25:30.241Z,48470.82
2019-05-13T01:27:57.916Z,48477.71
2019-05-13T01:30:25.594Z,48479.68
2019-05-13T01:32:54.049Z,48468.85
2019-05-13T01:35:23.633Z,48459.99
2019-05-13T01:37:53.686Z,48464.91
2019-05-13T01:40:20.531Z,48488.54
2019-05-13T01:42:48.313Z,48457.04
2019-05-13T01:45:15.972Z,48461.96
2019-05-13T01:47:44.239Z,48435.37
2019-05-13T01:50:14.040Z,48435.37
2019-05-13T01:52:41.333Z,48445.22
2019-05-13T01:55:08.993Z,48461.96
2019-05-13T01:57:36.648Z,48518.08
2019-05-13T02:00:04.775Z,48453.10
2019-05-13T02:02:33.652Z,48444.23
2019-05-13T02:05:03.748Z,48453.10
2019-05-13T02:07:30.933Z,48476.73
2019-05-13T02:09:59.575Z,48450.14
2019-05-13T02:12:27.239Z,48459.00
2019-05-13T02:14:54.931Z,48460.97
2019-05-13T02:17:23.414Z,48468.85
2019-05-13T02:19:51.328Z,48444.23
2019-05-13T02:22:18.994Z,48488.54
2019-05-13T02:24:46.640Z,48474.76
2019-05-13T02:27:14.583Z,48486.57
2019-05-13T02:29:43.660Z,48482.64
2019-05-13T02:32:13.747Z,48489.53
2019-05-13T02:34:43.731Z,48507.25
2019-05-13T02:37:12.862Z,48467.87
2019-05-13T02:39:42.557Z,48470.82
2019-05-13T02:42:08.952Z,48495.44
2019-05-13T02:44:36.614Z,48455.07
2019-05-13T02:47:04.273Z,48510.21
2019-05-13T02:49:32.654Z,48506.27
2019-05-13T02:52:02.732Z,48494.45
2019-05-13T02:54:33.700Z,48469.84
2019-05-13T02:56:59.309Z,48490.51
2019-05-13T02:59:26.963Z,48485.59
2019-05-13T03:01:54.641Z,48489.53
2019-05-13T03:04:23.356Z,48491.50
2019-05-13T03:06:52.146Z,48451.13
2019-05-13T03:09:22.724Z,48472.79
2019-05-13T03:11:53.223Z,48502.33
2019-05-13T03:14:18.639Z,48508.24
2019-05-13T03:16:52.810Z,48492.48
2019-05-13T03:19:22.396Z,48489.53
2019-05-13T03:21:52.452Z,48515.13
2019-05-13T03:24:22.425Z,48479.68
2019-05-13T03:26:48.744Z,48473.77
2019-05-13T03:29:16.408Z,48467.87
2019-05-13T03:31:46.486Z,48473.77
2019-05-13T03:34:15.642Z,48488.54
2019-05-13T03:36:46.084Z,48493.47
2019-05-13T03:39:16.116Z,48471.80
2019-05-13T03:41:42.297Z,48484.61
2019-05-13T03:44:13.597Z,48472.79
2019-05-13T03:46:42.368Z,48502.33
2019-05-13T03:49:08.969Z,48500.36
2019-05-13T03:51:36.663Z,48526.95
2019-05-13T03:54:04.326Z,48513.16
2019-05-13T03:56:32.918Z,48486.57
2019-05-13T03:59:02.737Z,48478.70
2019-05-13T04:01:32.565Z,48508.24
2019-05-13T04:04:03.038Z,48472.79
2019-05-13T04:06:32.077Z,48465.90
2019-05-13T04:09:17.374Z,48451.13
2019-05-13T04:11:27.724Z,48472.79
2019-05-13T04:13:55.476Z,48445.22
2019-05-13T04:16:23.914Z,48480.67
2019-05-13T04:18:53.677Z,48502.33
2019-05-13T04:21:22.830Z,48468.85
2019-05-13T04:23:53.004Z,48484.61
2019-05-13T04:26:23.164Z,48473.77
2019-05-13T04:28:52.426Z,48428.48
2019-05-13T04:31:18.654Z,48441.28
2019-05-13T04:33:46.384Z,48437.34
2019-05-13T04:36:14.119Z,48445.22
2019-05-13T04:38:44.267Z,48407.80
2019-05-13T04:41:12.184Z,48406.82
2019-05-13T04:43:42.924Z,48413.71
2019-05-13T04:46:09.477Z,48341.84
2019-05-13T04:48:40.511Z,48376.30
2019-05-13T04:51:06.548Z,48378.27
2019-05-13T04:53:34.252Z,48342.82
2019-05-13T04:56:03.078Z,48346.76
2019-05-13T04:58:32.251Z,48374.33
2019-05-13T05:01:04.688Z,48358.57
2019-05-13T05:03:35.153Z,48331.99
2019-05-13T05:05:59.015Z,48341.84
2019-05-13T05:08:26.685Z,48334.94
2019-05-13T05:10:54.449Z,48289.65
2019-05-13T05:13:22.287Z,48291.62
2019-05-13T05:15:52.287Z,48293.59
2019-05-13T05:18:21.987Z,48302.45
2019-05-13T05:20:48.811Z,48312.30
2019-05-13T05:23:16.474Z,48342.82
2019-05-13T05:25:44.135Z,48279.80
2019-05-13T05:28:11.800Z,48340.85
2019-05-13T05:30:41.185Z,48324.11
2019-05-13T05:33:11.235Z,48330.02
2019-05-13T05:35:38.389Z,48321.16
2019-05-13T05:38:06.163Z,48318.20
2019-05-13T05:40:34.727Z,48306.39
2019-05-13T05:43:02.745Z,48280.79
2019-05-13T05:45:31.883Z,48284.73
2019-05-13T05:48:01.561Z,48282.76
2019-05-13T05:50:31.804Z,48305.41
2019-05-13T05:52:58.373Z,48292.61
2019-05-13T05:55:26.033Z,48267.99
2019-05-13T05:57:53.714Z,48301.46
2019-05-13T06:00:22.056Z,48310.33
2019-05-13T06:02:52.987Z,48279.80
2019-05-13T06:05:21.243Z,48249.29
2019-05-13T06:07:48.561Z,48267.99
2019-05-13T06:10:16.240Z,48268.98
2019-05-13T06:12:43.905Z,48246.33
2019-05-13T06:15:12.368Z,48262.08
2019-05-13T06:17:41.299Z,48291.62
2019-05-13T06:20:09.290Z,48241.41
2019-05-13T06:22:36.956Z,48276.85
2019-05-13T06:25:04.645Z,48278.82
2019-05-13T06:27:32.312Z,48279.80
2019-05-13T06:30:02.293Z,48259.13
2019-05-13T06:32:31.438Z,48243.38
2019-05-13T06:35:01.320Z,48260.11
2019-05-13T06:37:28.067Z,48307.37
2019-05-13T06:39:55.729Z,48281.78
2019-05-13T06:42:23.392Z,48268.98
2019-05-13T06:44:51.486Z,48252.24
2019-05-13T06:47:21.753Z,48275.87
2019-05-13T06:49:48.682Z,48279.80
2019-05-13T06:52:16.336Z,48224.67
2019-05-13T06:54:44.028Z,48236.48
2019-05-13T06:57:13.413Z,48239.44
2019-05-13T06:59:41.997Z,48270.95
2019-05-13T07:02:12.221Z,48262.08
2019-05-13T07:04:41.431Z,48309.34
2019-05-13T07:07:13.071Z,48279.80
2019-05-13T07:09:37.939Z,48278.82
2019-05-13T07:12:05.607Z,48281.78
2019-05-13T07:14:33.277Z,48284.73
2019-05-13T07:17:02.017Z,48290.64
2019-05-13T07:19:32.384Z,48267.99
2019-05-13T07:22:02.356Z,48274.88
2019-05-13T07:24:28.839Z,48243.38
2019-05-13T07:26:56.502Z,48274.88
2019-05-13T07:29:24.368Z,48272.91
2019-05-13T07:31:52.382Z,48285.71
2019-05-13T07:34:24.094Z,48277.84
2019-05-13T07:36:51.282Z,48287.68
2019-05-13T07:39:18.955Z,48238.45
2019-05-13T07:41:46.613Z,48309.34
2019-05-13T07:44:14.275Z,48263.07
2019-05-13T07:46:42.685Z,48269.96
2019-05-13T07:49:12.014Z,48230.58
2019-05-13T07:51:42.087Z,48269.96
2019-05-13T07:54:11.245Z,48267.99
2019-05-13T07:56:38.567Z,48239.44
2019-05-13T07:59:06.232Z,48267.01
2019-05-13T08:01:33.999Z,48245.35
2019-05-13T08:04:02.290Z,48281.78
2019-05-13T08:06:32.380Z,48257.16
2019-05-13T08:09:01.693Z,48280.79
2019-05-13T08:11:34.951Z,48229.59
2019-05-13T08:13:58.249Z,48228.61
2019-05-13T08:16:25.899Z,48256.18
2019-05-13T08:18:53.567Z,48265.04
2019-05-13T08:21:21.598Z,48254.21
2019-05-13T08:23:49.413Z,48224.67
2019-05-13T08:26:17.182Z,48220.73
2019-05-13T08:28:57.009Z,48240.42
2019-05-13T08:31:14.210Z,48230.58
2019-05-13T08:33:42.490Z,48203.01
2019-05-13T08:36:12.283Z,48212.86
2019-05-13T08:38:42.958Z,48246.33
2019-05-13T08:41:09.831Z,48209.90
2019-05-13T08:43:38.456Z,48260.11
2019-05-13T08:46:06.127Z,48187.26
2019-05-13T08:48:33.795Z,48224.67
2019-05-13T08:51:03.051Z,48169.54
2019-05-13T08:53:31.734Z,48216.79
2019-05-13T08:56:01.463Z,48349.71
2019-05-13T08:58:28.905Z,48183.32
2019-05-13T09:00:58.968Z,48232.55
2019-05-13T09:03:25.962Z,48167.57
2019-05-13T09:05:53.624Z,48315.25
2019-05-13T09:08:22.375Z,48209.90
2019-05-13T09:10:52.094Z,48160.68
2019-05-13T09:13:19.604Z,48305.41
2019-05-13T09:15:47.272Z,48342.82
2019-05-13T09:18:14.974Z,48170.52
2019-05-13T09:20:42.629Z,48207.93
2019-05-13T09:23:11.425Z,48301.46
2019-05-13T09:25:41.518Z,48197.10
2019-05-13T09:28:08.805Z,48238.45
2019-05-13T09:30:36.464Z,48350.70
2019-05-13T09:33:04.195Z,48348.73
2019-05-13T09:35:31.865Z,48354.64
2019-05-13T09:38:03.034Z,48181.35
2019-05-13T09:40:31.316Z,48297.53
2019-05-13T09:42:58.445Z,48276.85
2019-05-13T09:45:26.146Z,48149.84
2019-05-13T09:47:53.800Z,48241.41
2019-05-13T09:50:29.414Z,48151.81
2019-05-13T09:52:51.742Z,48177.41
2019-05-13T09:55:26.370Z,48183.32
2019-05-13T09:57:49.056Z,48308.36
2019-05-13T10:00:16.739Z,48352.67
2019-05-13T10:02:44.403Z,48232.55
2019-05-13T10:05:12.074Z,48311.31
2019-05-13T10:07:42.381Z,48185.29
2019-05-13T10:10:11.689Z,48264.05
2019-05-13T10:12:38.655Z,48181.35
2019-05-13T10:15:06.444Z,48207.93
2019-05-13T10:17:34.113Z,48188.24
2019-05-13T10:20:01.772Z,48154.77
2019-05-13T10:22:31.749Z,48175.44
2019-05-13T10:24:58.807Z,48184.30
2019-05-13T10:27:26.473Z,48350.70
2019-05-13T10:29:54.571Z,48323.13
2019-05-13T10:32:22.385Z,48183.32
2019-05-13T10:34:52.077Z,48210.89
2019-05-13T10:37:21.904Z,48161.66
2019-05-13T10:39:48.783Z,48173.47
2019-05-13T10:42:16.463Z,48306.39
2019-05-13T10:44:44.134Z,48217.78
2019-05-13T10:47:12.239Z,48307.37
2019-05-13T10:49:42.483Z,48291.62
2019-05-13T10:52:11.768Z,48263.07
2019-05-13T10:54:38.790Z,48328.05
2019-05-13T10:57:06.458Z,48302.45
2019-05-13T10:59:34.264Z,48229.59
2019-05-13T11:02:02.531Z,48279.80
2019-05-13T11:04:32.669Z,48300.48
2019-05-13T11:07:02.383Z,48287.68
2019-05-13T11:09:31.961Z,48310.33
2019-05-13T11:12:01.857Z,48331.00
2019-05-13T11:14:28.279Z,48315.25
2019-05-13T11:16:55.936Z,48332.97
2019-05-13T11:19:23.884Z,48307.37
2019-05-13T11:21:51.554Z,48346.76
2019-05-13T11:24:19.215Z,48212.86
2019-05-13T11:26:46.885Z,48155.75
2019-05-13T11:29:14.548Z,48208.92
2019-05-13T11:31:42.918Z,48279.80
2019-05-13T11:34:11.248Z,48279.80
2019-05-13T11:36:42.694Z,48321.16
2019-05-13T11:39:12.698Z,48302.45
2019-05-13T11:41:38.756Z,48319.19
2019-05-13T11:44:14.197Z,48293.59
2019-05-13T11:46:35.820Z,48287.68
2019-05-13T11:49:03.483Z,48298.52
2019-05-13T11:51:32.011Z,48325.10
2019-05-13T11:54:02.389Z,48317.22
2019-05-13T11:56:33.430Z,48335.93
2019-05-13T11:58:59.005Z,48323.13
2019-05-13T12:01:26.684Z,48225.65
2019-05-13T12:03:54.610Z,48231.56
2019-05-13T12:08:54.984Z,48218.76
2019-05-13T12:11:22.327Z,48153.78
2019-05-13T12:13:52.836Z,48204.00
2019-05-13T12:16:22.449Z,48180.36
2019-05-13T12:18:52.469Z,48192.18
2019-05-13T12:21:18.760Z,48257.16
2019-05-13T12:23:46.433Z,48285.71
2019-05-13T12:26:14.400Z,48301.46
2019-05-13T12:28:42.250Z,48290.64
2019-05-13T12:31:12.183Z,48262.08
2019-05-13T12:33:43.809Z,48347.74
2019-05-13T12:36:15.376Z,48321.16
2019-05-13T12:38:38.373Z,48314.27
2019-05-13T12:41:06.598Z,48323.13
2019-05-13T12:43:34.548Z,48231.56
2019-05-13T12:46:02.659Z,48206.95
2019-05-13T12:48:30.470Z,48187.26
2019-05-13T12:50:58.139Z,48167.57
2019-05-13T12:53:25.807Z,48266.02
2019-05-13T12:55:56.673Z,48277.84
2019-05-13T12:58:23.848Z,48283.75
2019-05-13T13:00:53.375Z,48244.36
2019-05-13T13:03:23.132Z,48277.84
2019-05-13T13:05:50.730Z,48263.07
2019-05-13T13:08:38.538Z,48267.01
2019-05-13T13:10:47.823Z,48274.88
2019-05-13T13:13:15.999Z,48282.76
2019-05-13T13:15:48.583Z,48306.39
2019-05-13T13:18:14.284Z,48293.59
2019-05-13T13:20:42.584Z,48297.53
2019-05-13T13:23:12.588Z,48223.68
2019-05-13T13:25:42.466Z,48232.55
2019-05-13T13:28:12.099Z,48279.80
2019-05-13T13:30:38.408Z,48213.84
2019-05-13T13:33:06.064Z,48172.49
2019-05-13T13:35:34.125Z,48258.14
2019-05-13T13:38:04.242Z,48257.16
2019-05-13T13:40:35.247Z,48248.30
2019-05-13T13:43:05.342Z,48239.44
2019-05-13T13:45:36.845Z,48262.08
2019-05-13T13:48:03.935Z,48264.05
2019-05-13T13:50:33.272Z,48273.90
2019-05-13T13:52:59.101Z,48283.75
2019-05-13T13:55:26.778Z,48284.73
2019-05-13T14:00:38.106Z,48269.96
2019-05-13T14:02:54.511Z,48323.13
2019-05-13T14:05:24.706Z,48304.42
2019-05-13T14:07:04.399Z,48205.96
2019-05-13T14:07:13.511Z,48286.70
2019-05-13T14:07:52.255Z,48329.04
2019-05-13T14:10:22.010Z,48307.37
2019-05-13T14:12:49.397Z,48275.87
2019-05-13T14:15:17.072Z,48309.34
2019-05-13T14:17:44.729Z,48322.14
2019-05-13T14:20:12.685Z,48272.91
2019-05-13T14:22:41.896Z,48319.19
2019-05-13T14:25:11.539Z,48322.14
2019-05-13T14:27:41.881Z,48320.18
2019-05-13T14:30:08.743Z,48322.14
2019-05-13T14:32:36.416Z,48347.74
2019-05-13T14:35:04.077Z,48370.39
2019-05-13T14:37:31.923Z,48357.59
2019-05-13T14:40:01.959Z,48311.31
2019-05-13T14:42:32.007Z,48335.93
2019-05-13T14:44:58.632Z,48355.62
2019-05-13T14:47:26.352Z,48338.88
2019-05-13T14:49:54.063Z,48323.13
2019-05-13T14:52:22.363Z,48267.99
2019-05-13T14:54:51.397Z,48312.30
2019-05-13T14:57:21.541Z,48314.27
2019-05-13T14:59:51.224Z,48313.28
2019-05-13T15:02:18.049Z,48269.96
2019-05-13T15:04:45.720Z,48268.98
2019-05-13T15:07:13.773Z,48297.53
2019-05-13T15:09:42.120Z,48282.76
2019-05-13T15:12:09.996Z,48294.57
2019-05-13T15:14:40.004Z,48280.79
2019-05-13T15:17:07.831Z,48294.57
2019-05-13T15:19:35.631Z,48294.57
2019-05-13T15:22:03.647Z,48295.56
2019-05-13T15:24:32.431Z,48279.80
2019-05-13T15:27:00.267Z,48296.54
2019-05-13T15:29:27.931Z,48309.34
2019-05-13T15:31:55.591Z,48290.64
2019-05-13T15:34:23.264Z,48304.42
2019-05-13T15:36:51.507Z,48274.88
2019-05-13T15:39:19.552Z,48292.61
2019-05-13T15:41:47.216Z,48273.90
2019-05-13T15:44:14.909Z,48249.29
2019-05-13T15:46:42.703Z,48281.78
2019-05-13T15:49:12.375Z,48250.27
2019-05-13T15:51:42.038Z,48299.50
2019-05-13T15:54:09.159Z,48305.41
2019-05-13T15:56:36.820Z,48329.04
2019-05-13T15:59:04.528Z,48305.41
2019-05-13T16:01:32.244Z,48313.28
2019-05-13T16:04:02.540Z,48303.44
2019-05-13T16:06:32.032Z,48312.30
2019-05-13T16:08:58.797Z,48332.97
2019-05-13T16:11:26.757Z,48355.62
2019-05-13T16:13:54.422Z,48317.22
2019-05-13T16:16:22.327Z,48313.28
2019-05-13T16:18:51.465Z,48301.46
2019-05-13T16:21:19.480Z,48332.97
2019-05-13T16:23:47.165Z,48349.71
2019-05-13T16:26:14.823Z,48323.13
2019-05-13T16:28:42.491Z,48304.42
2019-05-13T16:31:11.990Z,48313.28
2019-05-13T16:33:41.567Z,48310.33
2019-05-13T16:36:08.953Z,48327.07
2019-05-13T16:38:36.614Z,48340.85
2019-05-13T16:41:04.294Z,48317.22
2019-05-13T16:43:32.268Z,48311.31
2019-05-13T16:45:59.952Z,48309.34
2019-05-13T16:48:27.877Z,48324.11
2019-05-13T16:50:55.542Z,48307.37
2019-05-13T16:53:25.779Z,48305.41
2019-05-13T16:55:52.564Z,48309.34
2019-05-13T16:58:24.485Z,48315.25
2019-05-13T17:00:52.102Z,48304.42
2019-05-13T17:03:21.087Z,48303.44
2019-05-13T17:05:48.452Z,48345.77
2019-05-13T17:08:16.644Z,48293.59
2019-05-13T17:10:44.294Z,48307.37
2019-05-13T17:13:11.956Z,48328.05
2019-05-13T17:15:41.531Z,48320.18
2019-05-13T17:18:12.095Z,48326.08
2019-05-13T17:20:38.348Z,48297.53
2019-05-13T17:23:06.022Z,48291.62
2019-05-13T17:25:33.821Z,48313.28
2019-05-13T17:28:02.846Z,48313.28
2019-05-13T17:30:31.978Z,48335.93
2019-05-13T17:33:02.095Z,48300.48
2019-05-13T17:35:31.183Z,48327.07
2019-05-13T17:37:58.638Z,48331.00
2019-05-13T17:40:26.307Z,48348.73
2019-05-13T17:42:53.991Z,48331.00
2019-05-13T17:45:22.033Z,48348.73
2019-05-13T17:47:51.870Z,48338.88
2019-05-13T17:50:19.180Z,48356.61
2019-05-13T17:52:46.845Z,48392.05
2019-05-13T17:55:14.508Z,48345.77
2019-05-13T17:57:42.237Z,48381.22
2019-05-13T18:00:09.986Z,48374.33
2019-05-13T18:02:37.647Z,48347.74
2019-05-13T18:05:05.394Z,48321.16
2019-05-13T18:07:33.114Z,48346.76
2019-05-13T18:10:01.472Z,48360.54
2019-05-13T18:12:29.456Z,48395.00
2019-05-13T18:14:57.118Z,48366.45
2019-05-13T18:17:24.775Z,48346.76
2019-05-13T18:19:52.444Z,48342.82
2019-05-13T18:22:20.109Z,48333.96
2019-05-13T18:24:47.771Z,48339.87
2019-05-13T18:27:15.436Z,48353.65
2019-05-13T18:29:43.332Z,48348.73
2019-05-13T18:32:12.404Z,48382.20
2019-05-13T18:34:40.303Z,48370.39
2019-05-13T18:37:07.964Z,48325.10
2019-05-13T18:39:35.678Z,48366.45
2019-05-13T18:42:03.433Z,48365.46
2019-05-13T18:44:31.701Z,48358.57
2019-05-13T18:47:01.499Z,48358.57
2019-05-13T18:49:28.919Z,48350.70
2019-05-13T18:51:56.587Z,48337.90
2019-05-13T18:54:24.266Z,48342.82
2019-05-13T18:56:52.275Z,48331.00
2019-05-13T18:59:21.411Z,48384.17
2019-05-13T19:01:49.288Z,48370.39
2019-05-13T19:04:16.963Z,48350.70
2019-05-13T19:06:44.629Z,48371.37
2019-05-13T19:09:12.287Z,48356.61
2019-05-13T19:11:42.427Z,48360.54
2019-05-13T19:14:12.060Z,48379.25
2019-05-13T19:16:38.704Z,48346.76
2019-05-13T19:19:13.236Z,48393.04
2019-05-13T19:21:35.731Z,48374.33
2019-05-13T19:24:03.461Z,48365.46
2019-05-13T19:26:31.100Z,48361.53
2019-05-13T19:28:58.768Z,48348.73
2019-05-13T19:31:26.428Z,48339.87
2019-05-13T19:33:54.091Z,48366.45
2019-05-13T19:36:21.763Z,48369.41
2019-05-13T19:38:51.285Z,48350.70
2019-05-13T19:41:19.157Z,48403.87
2019-05-13T19:43:46.976Z,48380.23
2019-05-13T19:46:14.640Z,48391.07
2019-05-13T19:48:42.296Z,48363.50
2019-05-13T19:51:09.960Z,48379.25
2019-05-13T19:53:37.608Z,48411.74
2019-05-13T19:56:05.282Z,48370.39
2019-05-13T19:58:32.939Z,48390.08
2019-05-13T20:01:00.596Z,48391.07
2019-05-13T20:03:28.251Z,48368.42
2019-05-13T20:05:55.946Z,48406.82
2019-05-13T20:08:23.640Z,48356.61
2019-05-13T20:10:51.556Z,48395.99
2019-05-13T20:13:21.652Z,48408.79
2019-05-13T20:15:48.724Z,48417.65
2019-05-13T20:18:16.447Z,48361.53
2019-05-13T20:20:44.119Z,48399.93
2019-05-13T20:23:12.155Z,48392.05
2019-05-13T20:25:41.730Z,48386.14
2019-05-13T20:28:11.424Z,48398.94
2019-05-13T20:30:38.916Z,48405.84
2019-05-13T20:33:06.581Z,48399.93
2019-05-13T20:35:34.231Z,48414.70
2019-05-13T20:38:02.298Z,48409.77
2019-05-13T20:40:32.134Z,48419.62
2019-05-13T20:43:01.803Z,48400.91
2019-05-13T20:45:31.105Z,48401.90
2019-05-13T20:47:58.368Z,48422.57
2019-05-13T20:50:26.091Z,48412.73
2019-05-13T20:52:53.752Z,48395.99
2019-05-13T20:55:22.089Z,48433.41
2019-05-13T20:57:52.814Z,48402.88
2019-05-13T21:00:19.363Z,48408.79
2019-05-13T21:02:47.018Z,48422.57
2019-05-13T21:05:14.688Z,48429.46
2019-05-13T21:07:42.343Z,48431.43
2019-05-13T21:10:11.938Z,48391.07
2019-05-13T21:12:41.783Z,48409.77
2019-05-13T21:15:08.777Z,48403.87
2019-05-13T21:17:36.504Z,48392.05
2019-05-13T21:20:18.200Z,48402.88
2019-05-13T21:22:33.534Z,48391.07
2019-05-13T21:25:02.119Z,48408.79
2019-05-13T21:27:31.508Z,48396.97
2019-05-13T21:30:01.153Z,48411.74
2019-05-13T21:32:28.683Z,48413.71
2019-05-13T21:34:56.336Z,48415.68
2019-05-13T21:37:24.000Z,48439.31
2019-05-13T21:39:51.774Z,48395.99
2019-05-13T21:42:21.475Z,48402.88
2019-05-13T21:44:51.131Z,48411.74
2019-05-13T21:47:18.268Z,48355.62
2019-05-13T21:49:45.928Z,48413.71
2019-05-13T21:52:13.867Z,48391.07
2019-05-13T21:54:42.204Z,48449.16
2019-05-13T21:57:11.462Z,48406.82
2019-05-13T21:59:41.269Z,48380.23
2019-05-13T22:02:08.599Z,48400.91
2019-05-13T22:04:36.267Z,48409.77
2019-05-13T22:07:03.946Z,48395.99
2019-05-13T22:09:32.016Z,48403.87
2019-05-13T22:12:01.841Z,48411.74
2019-05-13T22:14:31.766Z,48392.05
2019-05-13T22:16:58.598Z,48423.56
2019-05-13T22:19:26.297Z,48435.37
2019-05-13T22:21:53.969Z,48419.62
2019-05-13T22:24:22.056Z,48415.68
2019-05-13T22:26:51.185Z,48454.08
2019-05-13T22:29:22.967Z,48413.71
2019-05-13T22:31:48.401Z,48416.67
2019-05-13T22:34:16.061Z,48443.25
2019-05-13T22:36:43.796Z,48412.73
2019-05-13T22:39:11.637Z,48401.90
2019-05-13T22:41:41.892Z,48446.20
2019-05-13T22:44:11.436Z,48431.43
2019-05-13T22:46:38.199Z,48394.02
2019-05-13T22:49:05.993Z,48423.56
2019-05-13T22:51:33.697Z,48437.34
2019-05-13T22:54:01.448Z,48423.56
2019-05-13T22:56:29.129Z,48409.77
2019-05-13T22:58:56.855Z,48437.34
2019-05-13T23:01:24.528Z,48425.53
2019-05-13T23:03:52.262Z,48450.14
2019-05-13T23:06:21.613Z,48435.37
2019-05-13T23:08:49.464Z,48416.67
2019-05-13T23:11:17.132Z,48454.08
2019-05-13T23:13:44.830Z,48412.73
2019-05-13T23:16:12.547Z,48452.11
2019-05-13T23:18:42.088Z,48449.16
2019-05-13T23:21:11.474Z,48484.61
2019-05-13T23:23:39.012Z,48406.82
2019-05-13T23:26:06.684Z,48459.00
2019-05-13T23:28:34.348Z,48464.91
2019-05-13T23:31:02.012Z,48427.50
2019-05-13T23:33:31.357Z,48444.23
2019-05-13T23:36:01.359Z,48442.27
2019-05-13T23:38:28.584Z,48437.34
2019-05-13T23:40:56.301Z,48435.37
2019-05-13T23:43:23.956Z,48456.05
2019-05-13T23:45:51.623Z,48459.00
2019-05-13T23:48:21.399Z,48468.85
2019-05-13T23:50:48.652Z,48448.18
2019-05-13T23:53:16.312Z,48454.08
2019-05-13T23:55:43.956Z,48423.56
2019-05-13T23:58:12.232Z,48424.54
